createdAt,value
2023-03-18T00:00:19.269Z,13.63
2023-03-18T00:02:46.719Z,16.83
2023-03-18T00:05:13.866Z,13.05
2023-03-18T00:07:41.798Z,13.18
2023-03-18T00:10:10.448Z,18.00
2023-03-18T00:12:41.123Z,12.18
2023-03-18T00:15:09.907Z,15.43
2023-03-18T00:17:38.011Z,16.55
2023-03-18T00:20:07.104Z,14.32
2023-03-18T00:22:35.019Z,13.85
2023-03-18T00:25:02.593Z,11.82
2023-03-18T00:27:29.353Z,12.68
2023-03-18T00:29:56.364Z,11.15
2023-03-18T00:32:23.446Z,12.75
2023-03-18T00:34:51.002Z,15.07
2023-03-18T00:37:30.342Z,11.75
2023-03-18T00:39:59.864Z,12.52
2023-03-18T00:42:26.516Z,14.85
2023-03-18T00:44:53.189Z,12.25
2023-03-18T00:47:19.859Z,13.25
2023-03-18T00:49:47.496Z,12.77
2023-03-18T00:52:14.755Z,12.65
2023-03-18T00:54:41.978Z,12.52
2023-03-18T00:57:08.798Z,11.60
2023-03-18T00:59:35.744Z,12.35
2023-03-18T01:02:02.826Z,12.07
2023-03-18T01:04:29.567Z,13.02
2023-03-18T01:06:56.394Z,12.15
2023-03-18T01:09:23.794Z,9.48
2023-03-18T01:11:50.527Z,10.88
2023-03-18T01:14:17.218Z,9.23
2023-03-18T01:16:43.915Z,9.27
2023-03-18T01:19:10.863Z,11.65
2023-03-18T01:21:38.012Z,9.35
2023-03-18T01:24:05.078Z,9.88
2023-03-18T01:26:32.120Z,8.85
2023-03-18T01:28:59.668Z,8.02
2023-03-18T01:31:26.389Z,9.25
2023-03-18T01:33:53.313Z,9.75
2023-03-18T01:36:19.979Z,11.88
2023-03-18T01:38:47.124Z,13.82
2023-03-18T01:41:14.599Z,9.23
2023-03-18T01:43:43.029Z,10.02
2023-03-18T01:46:33.987Z,9.48
2023-03-18T01:49:04.094Z,9.35
2023-03-18T01:51:31.360Z,8.52
2023-03-18T01:54:00.590Z,8.43
2023-03-18T01:56:28.008Z,9.18
2023-03-18T01:58:56.062Z,7.50
2023-03-18T02:01:34.030Z,11.18
2023-03-18T02:04:02.814Z,9.23
2023-03-18T02:06:29.685Z,11.10
2023-03-18T02:08:56.907Z,7.93
2023-03-18T02:13:50.336Z,10.75
2023-03-18T02:16:27.515Z,8.40
2023-03-18T02:19:02.308Z,8.55
2023-03-18T02:21:33.866Z,9.38
2023-03-18T02:24:19.805Z,11.13
2023-03-18T02:27:17.362Z,11.70
2023-03-18T02:29:44.666Z,10.73
2023-03-18T02:32:11.697Z,11.05
2023-03-18T02:34:38.689Z,10.13
2023-03-18T02:37:08.156Z,9.23
2023-03-18T02:39:35.859Z,10.77
2023-03-18T02:42:02.977Z,9.00
2023-03-18T02:44:29.805Z,9.15
2023-03-18T02:47:04.245Z,8.50
2023-03-18T02:49:31.245Z,8.48
2023-03-18T02:51:57.878Z,7.97
2023-03-18T02:54:28.982Z,9.43
2023-03-18T02:56:56.141Z,9.93
2023-03-18T02:59:23.441Z,8.57
2023-03-18T03:01:52.399Z,8.25
2023-03-18T03:04:20.510Z,10.77
2023-03-18T03:06:47.321Z,8.40
2023-03-18T03:09:16.399Z,10.63
2023-03-18T03:11:45.115Z,13.73
2023-03-18T03:14:12.187Z,10.27
2023-03-18T03:16:39.225Z,12.85
2023-03-18T03:19:06.404Z,9.70
2023-03-18T03:21:35.967Z,14.63
2023-03-18T03:24:07.670Z,9.43
2023-03-18T03:26:35.202Z,14.90
2023-03-18T03:29:02.704Z,9.82
2023-03-18T03:31:29.360Z,10.57
2023-03-18T03:33:56.487Z,10.38
2023-03-18T03:36:23.148Z,9.32
2023-03-18T03:38:50.701Z,9.27
2023-03-18T03:41:17.317Z,11.95
2023-03-18T03:43:44.863Z,9.85
2023-03-18T03:46:11.834Z,10.52
2023-03-18T03:48:39.685Z,10.98
2023-03-18T03:51:07.229Z,9.63
2023-03-18T03:53:34.384Z,12.75
2023-03-18T03:56:01.180Z,9.98
2023-03-18T03:58:28.051Z,11.00
2023-03-18T04:00:54.635Z,8.98
2023-03-18T04:03:21.686Z,9.85
2023-03-18T04:05:49.566Z,10.05
2023-03-18T04:08:16.307Z,9.73
2023-03-18T04:10:43.488Z,15.57
2023-03-18T04:13:10.420Z,12.27
2023-03-18T04:15:37.550Z,10.63
2023-03-18T04:18:07.489Z,10.80
2023-03-18T04:20:35.785Z,11.68
2023-03-18T04:23:02.932Z,9.52
2023-03-18T04:25:30.256Z,8.88
2023-03-18T04:27:57.322Z,11.30
2023-03-18T04:30:25.747Z,11.50
2023-03-18T04:32:53.212Z,10.15
2023-03-18T04:35:19.897Z,10.18
2023-03-18T04:37:46.628Z,9.73
2023-03-18T04:40:13.378Z,7.32
2023-03-18T04:42:40.027Z,10.50
2023-03-18T04:45:07.673Z,12.98
2023-03-18T04:47:35.993Z,9.77
2023-03-18T04:50:04.739Z,10.10
2023-03-18T04:52:32.086Z,9.07
2023-03-18T04:54:58.747Z,8.02
2023-03-18T04:57:26.273Z,8.80
2023-03-18T04:59:53.027Z,10.07
2023-03-18T05:02:20.080Z,6.60
2023-03-18T05:04:46.747Z,6.07
2023-03-18T05:07:15.624Z,10.50
2023-03-18T05:09:42.703Z,9.30
2023-03-18T05:12:14.887Z,8.02
2023-03-18T05:14:45.189Z,9.95
2023-03-18T05:17:15.885Z,5.55
2023-03-18T05:19:44.793Z,7.32
2023-03-18T05:22:11.897Z,7.38
2023-03-18T05:24:39.936Z,8.55
2023-03-18T05:27:06.787Z,7.65
2023-03-18T05:29:33.745Z,8.40
2023-03-18T05:32:00.550Z,8.55
2023-03-18T05:34:27.714Z,6.10
2023-03-18T05:36:54.295Z,6.35
2023-03-18T05:39:20.911Z,7.65
2023-03-18T05:41:47.623Z,6.88
2023-03-18T05:44:14.874Z,4.65
2023-03-18T05:46:42.029Z,7.07
2023-03-18T05:49:09.029Z,5.40
2023-03-18T05:51:35.791Z,5.75
2023-03-18T05:54:02.428Z,6.63
2023-03-18T05:56:29.055Z,6.45
2023-03-18T05:58:55.658Z,6.53
2023-03-18T06:01:22.312Z,6.07
2023-03-18T06:03:48.943Z,4.53
2023-03-18T06:06:15.567Z,5.95
2023-03-18T06:08:42.184Z,7.50
2023-03-18T06:11:08.949Z,6.43
2023-03-18T06:13:35.694Z,4.63
2023-03-18T06:16:03.956Z,8.07
2023-03-18T06:18:30.665Z,4.18
2023-03-18T06:20:57.514Z,5.25
2023-03-18T06:23:24.057Z,5.18
2023-03-18T06:25:51.225Z,6.25
2023-03-18T06:28:18.838Z,5.13
2023-03-18T06:30:45.480Z,8.00
2023-03-18T06:33:12.293Z,5.70
2023-03-18T06:35:39.002Z,5.45
2023-03-18T06:38:05.883Z,8.52
2023-03-18T06:40:32.523Z,7.38
2023-03-18T06:42:59.319Z,4.47
2023-03-18T06:45:26.181Z,5.85
2023-03-18T06:47:52.948Z,5.30
2023-03-18T06:50:20.826Z,7.05
2023-03-18T06:52:48.209Z,5.72
2023-03-18T06:55:15.220Z,6.85
2023-03-18T06:57:41.869Z,7.93
2023-03-18T07:00:10.603Z,4.63
2023-03-18T07:02:39.505Z,6.03
2023-03-18T07:05:07.961Z,6.03
2023-03-18T07:07:34.938Z,4.85
2023-03-18T07:10:02.529Z,5.63
2023-03-18T07:12:29.124Z,7.32
2023-03-18T07:14:55.736Z,9.02
2023-03-18T07:17:23.068Z,7.70
2023-03-18T07:19:49.670Z,6.43
2023-03-18T07:22:17.545Z,8.43
2023-03-18T07:24:45.564Z,5.13
2023-03-18T07:27:13.631Z,8.57
2023-03-18T07:29:40.641Z,5.18
2023-03-18T07:32:07.296Z,7.45
2023-03-18T07:34:34.157Z,7.70
2023-03-18T07:37:01.268Z,4.50
2023-03-18T07:39:28.296Z,5.53
2023-03-18T07:41:55.034Z,5.18
2023-03-18T07:44:22.079Z,5.63
2023-03-18T07:46:48.855Z,8.48
2023-03-18T07:49:15.953Z,9.18
2023-03-18T07:51:42.810Z,6.72
2023-03-18T07:54:09.664Z,5.53
2023-03-18T07:56:36.282Z,4.53
2023-03-18T07:59:02.920Z,7.22
2023-03-18T08:01:29.648Z,5.90
2023-03-18T08:03:58.114Z,5.28
2023-03-18T08:06:25.494Z,7.18
2023-03-18T08:08:52.503Z,7.90
2023-03-18T08:11:19.621Z,6.00
2023-03-18T08:13:49.124Z,5.35
2023-03-18T08:16:16.353Z,6.47
2023-03-18T08:18:43.278Z,5.45
2023-03-18T08:21:09.955Z,7.43
2023-03-18T08:23:37.349Z,7.88
2023-03-18T08:26:04.666Z,4.07
2023-03-18T08:28:31.419Z,6.28
2023-03-18T08:30:59.408Z,6.78
2023-03-18T08:33:27.317Z,5.15
2023-03-18T08:35:56.134Z,6.75
2023-03-18T08:38:24.093Z,5.05
2023-03-18T08:40:50.996Z,4.68
2023-03-18T08:43:18.110Z,6.18
2023-03-18T08:45:45.255Z,6.75
2023-03-18T08:48:11.974Z,7.18
2023-03-18T08:50:39.005Z,4.57
2023-03-18T08:53:06.016Z,3.90
2023-03-18T08:55:35.386Z,4.93
2023-03-18T08:58:05.669Z,6.15
2023-03-18T09:00:34.160Z,4.75
2023-03-18T09:03:00.939Z,3.40
2023-03-18T09:05:27.615Z,5.45
2023-03-18T09:07:54.566Z,6.57
2023-03-18T09:10:21.631Z,9.88
2023-03-18T09:12:50.067Z,6.45
2023-03-18T09:15:17.707Z,4.43
2023-03-18T09:17:59.938Z,5.35
2023-03-18T09:20:30.782Z,6.70
2023-03-18T09:22:57.695Z,3.25
2023-03-18T09:25:24.877Z,4.30
2023-03-18T09:27:52.057Z,6.07
2023-03-18T09:30:18.997Z,5.85
2023-03-18T09:32:45.792Z,5.18
2023-03-18T09:35:13.424Z,7.70
2023-03-18T09:37:40.672Z,4.25
2023-03-18T09:40:08.556Z,3.38
2023-03-18T09:42:51.718Z,4.03
2023-03-18T09:45:26.633Z,5.93
2023-03-18T09:48:32.002Z,3.70
2023-03-18T09:51:24.152Z,4.78
2023-03-18T09:54:04.500Z,3.55
2023-03-18T09:56:34.897Z,10.13
2023-03-18T09:59:12.697Z,4.50
2023-03-18T10:01:40.017Z,5.45
2023-03-18T10:04:25.918Z,5.43
2023-03-18T10:07:03.179Z,5.10
2023-03-18T10:09:48.560Z,5.30
2023-03-18T10:12:20.404Z,3.70
2023-03-18T10:14:52.760Z,6.35
2023-03-18T10:17:22.952Z,3.88
2023-03-18T10:19:53.652Z,5.28
2023-03-18T10:22:50.876Z,4.85
2023-03-18T10:25:36.541Z,5.18
2023-03-18T10:28:49.847Z,6.72
2023-03-18T10:31:55.661Z,2.90
2023-03-18T10:34:27.680Z,4.93
2023-03-18T10:37:20.450Z,3.67
2023-03-18T10:39:49.627Z,4.13
2023-03-18T10:42:22.087Z,3.33
2023-03-18T10:44:50.506Z,3.50
2023-03-18T10:47:26.904Z,5.53
2023-03-18T10:50:18.218Z,4.45
2023-03-18T10:52:53.669Z,4.88
2023-03-18T10:55:23.295Z,5.65
2023-03-18T10:57:50.056Z,3.30
2023-03-18T11:00:27.377Z,5.55
2023-03-18T11:02:55.501Z,6.32
2023-03-18T11:05:27.736Z,5.05
2023-03-18T11:08:06.606Z,3.75
2023-03-18T11:10:36.131Z,3.72
2023-03-18T11:13:03.923Z,3.20
2023-03-18T11:15:37.153Z,3.75
2023-03-18T11:18:04.302Z,3.70
2023-03-18T11:20:45.804Z,6.38
2023-03-18T11:23:18.685Z,4.50
2023-03-18T11:25:46.448Z,3.05
2023-03-18T11:28:26.767Z,5.63
2023-03-18T11:30:57.130Z,3.70
2023-03-18T11:33:26.185Z,3.63
2023-03-18T11:35:55.152Z,2.17
2023-03-18T11:38:33.378Z,3.33
2023-03-18T11:41:09.067Z,4.10
2023-03-18T11:43:38.457Z,6.75
2023-03-18T11:46:09.922Z,5.15
2023-03-18T11:48:38.673Z,3.63
2023-03-18T11:52:02.995Z,4.72
2023-03-18T11:55:16.361Z,4.28
2023-03-18T11:58:29.902Z,3.75
2023-03-18T12:01:13.838Z,4.05
2023-03-18T12:04:05.049Z,4.75
2023-03-18T12:09:38.628Z,6.18
2023-03-18T12:12:22.061Z,2.78
2023-03-18T12:15:01.478Z,2.88
2023-03-18T12:17:59.783Z,3.45
2023-03-18T12:20:53.542Z,3.45
2023-03-18T12:23:50.033Z,3.80
2023-03-18T12:26:41.493Z,5.32
2023-03-18T12:30:01.441Z,4.38
2023-03-18T12:32:36.113Z,2.42
2023-03-18T12:35:36.542Z,2.50
2023-03-18T12:38:52.144Z,1.92
2023-03-18T12:44:22.089Z,4.32
2023-03-18T12:47:05.091Z,3.78
2023-03-18T12:50:22.112Z,2.50
2023-03-18T12:52:54.313Z,2.42
2023-03-18T12:55:29.767Z,4.35
2023-03-18T12:58:02.003Z,3.25
2023-03-18T13:00:57.554Z,2.88
2023-03-18T13:03:48.926Z,1.65
2023-03-18T13:06:29.377Z,1.75
2023-03-18T13:09:39.812Z,2.60
2023-03-18T13:12:27.008Z,2.85
2023-03-18T13:15:08.786Z,4.28
2023-03-18T13:17:39.052Z,3.95
2023-03-18T13:20:23.916Z,2.55
2023-03-18T13:23:30.970Z,2.63
2023-03-18T13:26:15.469Z,2.60
2023-03-18T13:31:45.111Z,3.58
2023-03-18T13:38:24.400Z,3.58
2023-03-18T13:41:07.625Z,2.25
2023-03-18T13:43:35.791Z,1.17
2023-03-18T13:46:02.804Z,3.83
2023-03-18T13:48:32.381Z,3.10
2023-03-18T13:51:14.758Z,3.78
2023-03-18T13:53:44.208Z,1.80
2023-03-18T13:56:46.071Z,2.67
2023-03-18T13:59:50.093Z,3.40
2023-03-18T14:03:07.224Z,1.75
2023-03-18T14:05:40.484Z,3.05
2023-03-18T14:08:58.703Z,5.20
2023-03-18T14:11:34.186Z,4.32
2023-03-18T14:14:09.193Z,2.90
2023-03-18T14:16:56.607Z,2.35
2023-03-18T14:19:28.859Z,4.93
2023-03-18T14:22:31.727Z,3.15
2023-03-18T14:25:37.513Z,2.00
2023-03-18T14:28:22.876Z,4.63
2023-03-18T14:31:12.272Z,2.53
2023-03-18T14:34:12.279Z,3.20
2023-03-18T14:39:53.495Z,3.78
2023-03-18T14:42:44.226Z,5.68
2023-03-18T14:45:25.646Z,1.40
2023-03-18T14:47:56.852Z,2.88
2023-03-18T14:50:35.796Z,4.25
2023-03-18T14:53:22.975Z,5.75
2023-03-18T14:55:51.822Z,4.50
2023-03-18T14:58:22.340Z,3.65
2023-03-18T15:00:52.258Z,3.38
2023-03-18T15:03:27.574Z,4.40
2023-03-18T15:06:02.658Z,2.33
2023-03-18T15:08:46.778Z,2.72
2023-03-18T15:11:15.058Z,7.63
2023-03-18T15:13:42.681Z,3.38
2023-03-18T15:16:14.517Z,3.63
2023-03-18T15:18:41.538Z,5.32
2023-03-18T15:21:13.388Z,4.78
2023-03-18T15:23:49.579Z,5.07
2023-03-18T15:26:24.871Z,3.50
2023-03-18T15:28:56.872Z,3.63
2023-03-18T15:31:32.142Z,2.83
2023-03-18T15:34:19.518Z,2.60
2023-03-18T15:36:55.670Z,3.78
2023-03-18T15:39:49.061Z,5.10
2023-03-18T15:42:18.451Z,3.35
2023-03-18T15:44:50.320Z,4.47
2023-03-18T15:47:33.181Z,3.80
2023-03-18T15:50:31.110Z,6.80
2023-03-18T15:53:04.460Z,7.32
2023-03-18T15:55:35.315Z,5.13
2023-03-18T15:58:04.947Z,10.75
2023-03-18T16:00:34.285Z,13.55
2023-03-18T16:03:01.494Z,8.05
2023-03-18T16:05:29.403Z,7.32
2023-03-18T16:07:58.582Z,5.35
2023-03-18T16:10:31.115Z,4.15
2023-03-18T16:13:01.311Z,5.47
2023-03-18T16:15:28.346Z,2.30
2023-03-18T16:17:58.777Z,4.25
2023-03-18T16:20:30.916Z,3.95
2023-03-18T16:22:59.990Z,2.65
2023-03-18T16:25:27.202Z,3.78
2023-03-18T16:27:57.024Z,4.43
2023-03-18T16:30:28.250Z,4.05
2023-03-18T16:32:56.543Z,2.58
2023-03-18T16:35:26.894Z,2.33
2023-03-18T16:37:53.949Z,2.75
2023-03-18T16:40:27.723Z,3.83
2023-03-18T16:42:56.770Z,4.20
2023-03-18T16:45:33.570Z,5.00
2023-03-18T16:48:08.395Z,9.55
2023-03-18T16:50:42.029Z,13.63
2023-03-18T16:55:57.570Z,6.82
2023-03-18T16:58:45.673Z,8.07
2023-03-18T17:01:26.087Z,14.02
2023-03-18T17:04:04.392Z,17.65
2023-03-18T17:06:41.414Z,6.20
2023-03-18T17:09:11.679Z,11.85
2023-03-18T17:11:39.193Z,14.10
2023-03-18T17:14:08.164Z,9.90
2023-03-18T17:16:36.743Z,4.00
2023-03-18T17:19:04.521Z,4.60
2023-03-18T17:21:32.193Z,5.07
2023-03-18T17:23:59.166Z,2.47
2023-03-18T17:26:43.035Z,4.13
2023-03-18T17:29:25.823Z,4.25
2023-03-18T17:31:54.217Z,3.92
2023-03-18T17:34:23.943Z,4.25
2023-03-18T17:36:51.609Z,3.25
2023-03-18T17:39:19.828Z,4.70
2023-03-18T17:41:46.594Z,4.93
2023-03-18T17:44:35.589Z,3.65
2023-03-18T17:47:03.408Z,9.77
2023-03-18T17:49:31.672Z,2.90
2023-03-18T17:52:04.558Z,3.00
2023-03-18T17:54:38.441Z,2.92
2023-03-18T17:57:13.676Z,4.78
2023-03-18T17:59:42.557Z,3.88
2023-03-18T18:02:18.672Z,4.78
2023-03-18T18:04:48.131Z,6.65
2023-03-18T18:07:27.802Z,29.73
2023-03-18T18:09:59.070Z,5.03
2023-03-18T18:12:30.554Z,3.92
2023-03-18T18:15:05.058Z,10.07
2023-03-18T18:17:43.249Z,7.45
2023-03-18T18:20:23.292Z,5.35
2023-03-18T18:22:57.058Z,6.28
2023-03-18T18:25:26.927Z,9.40
2023-03-18T18:27:55.374Z,12.32
2023-03-18T18:30:33.400Z,11.05
2023-03-18T18:33:04.188Z,9.25
2023-03-18T18:35:32.871Z,10.10
2023-03-18T18:38:00.102Z,9.25
2023-03-18T18:40:26.852Z,10.07
2023-03-18T18:42:54.451Z,7.80
2023-03-18T18:45:22.059Z,6.30
2023-03-18T18:47:49.593Z,9.05
2023-03-18T18:50:19.814Z,8.52
2023-03-18T18:52:47.451Z,7.65
2023-03-18T18:55:14.294Z,13.25
2023-03-18T18:57:43.270Z,12.52
2023-03-18T19:00:22.588Z,10.82
2023-03-18T19:02:57.394Z,10.80
2023-03-18T19:05:24.218Z,17.15
2023-03-18T19:07:51.709Z,19.92
2023-03-18T19:10:18.966Z,21.33
2023-03-18T19:12:45.736Z,22.90
2023-03-18T19:15:15.482Z,26.35
2023-03-18T19:17:43.580Z,24.05
2023-03-18T19:20:39.789Z,37.38
2023-03-18T19:23:14.668Z,36.30
2023-03-18T19:25:42.266Z,33.90
2023-03-18T19:28:15.017Z,30.35
2023-03-18T19:30:43.039Z,32.60
2023-03-18T19:33:17.259Z,59.28
2023-03-18T19:35:44.201Z,30.27
2023-03-18T19:38:16.810Z,32.13
2023-03-18T19:40:43.575Z,28.38
2023-03-18T19:43:16.240Z,29.33
2023-03-18T19:45:50.652Z,56.45
2023-03-18T19:48:21.221Z,28.48
2023-03-18T19:50:48.595Z,13.45
2023-03-18T19:53:17.287Z,82.32
2023-03-18T19:55:45.244Z,13.23
2023-03-18T19:58:23.220Z,16.60
2023-03-18T20:00:51.373Z,17.50
2023-03-18T20:03:20.418Z,23.25
2023-03-18T20:05:47.758Z,12.90
2023-03-18T20:08:14.912Z,17.95
2023-03-18T20:10:42.731Z,30.00
2023-03-18T20:13:17.064Z,17.77
2023-03-18T20:18:17.025Z,19.67
2023-03-18T20:20:52.967Z,16.70
2023-03-18T20:23:23.184Z,17.70
2023-03-18T20:25:54.899Z,13.60
2023-03-18T20:28:29.083Z,15.25
2023-03-18T20:30:57.558Z,23.23
2023-03-18T20:33:26.519Z,22.50
2023-03-18T20:35:54.161Z,24.70
2023-03-18T20:38:39.737Z,22.85
2023-03-18T20:41:06.862Z,19.60
2023-03-18T20:43:34.192Z,14.82
2023-03-18T20:46:02.146Z,16.88
2023-03-18T20:48:28.897Z,13.32
2023-03-18T20:50:55.876Z,14.52
2023-03-18T20:53:24.439Z,15.93
2023-03-18T20:55:52.131Z,11.45
2023-03-18T20:58:28.321Z,13.43
2023-03-18T21:00:55.412Z,15.68
2023-03-18T21:03:33.902Z,10.55
2023-03-18T21:06:03.641Z,17.60
2023-03-18T21:08:32.322Z,12.80
2023-03-18T21:11:02.096Z,12.32
2023-03-18T21:13:39.348Z,13.10
2023-03-18T21:16:16.930Z,17.88
2023-03-18T21:18:46.029Z,20.70
2023-03-18T21:21:51.315Z,20.45
2023-03-18T21:27:03.168Z,17.23
2023-03-18T21:29:30.782Z,17.60
2023-03-18T21:31:57.483Z,14.40
2023-03-18T21:34:24.122Z,14.68
2023-03-18T21:36:51.413Z,13.48
2023-03-18T21:39:18.063Z,15.38
2023-03-18T21:41:45.093Z,18.48
2023-03-18T21:44:12.601Z,18.67
2023-03-18T21:46:39.328Z,24.30
2023-03-18T21:49:07.591Z,21.85
2023-03-18T21:51:39.690Z,22.83
2023-03-18T21:54:11.710Z,15.63
2023-03-18T21:56:38.359Z,12.05
2023-03-18T21:59:05.032Z,12.73
2023-03-18T22:01:32.534Z,16.48
2023-03-18T22:03:59.494Z,15.18
2023-03-18T22:06:26.180Z,14.27
2023-03-18T22:08:52.947Z,15.55
2023-03-18T22:11:22.206Z,14.93
2023-03-18T22:13:49.733Z,12.93
2023-03-18T22:16:17.874Z,16.15
2023-03-18T22:18:46.094Z,15.43
2023-03-18T22:21:31.184Z,16.50
2023-03-18T22:24:00.199Z,11.57
2023-03-18T22:26:26.949Z,12.40
2023-03-18T22:28:53.569Z,11.70
2023-03-18T22:31:25.579Z,16.88
2023-03-18T22:33:53.952Z,12.63
2023-03-18T22:36:25.621Z,13.90
2023-03-18T22:38:52.400Z,12.98
2023-03-18T22:41:22.165Z,13.27
2023-03-18T22:43:49.477Z,14.65
2023-03-18T22:46:16.318Z,13.05
2023-03-18T22:48:43.704Z,15.43
2023-03-18T22:51:23.945Z,12.73
2023-03-18T22:53:52.289Z,14.63
2023-03-18T22:56:19.084Z,14.73
2023-03-18T22:58:45.886Z,13.98
2023-03-18T23:01:16.801Z,14.90
2023-03-18T23:03:47.808Z,12.63
2023-03-18T23:06:20.274Z,15.25
2023-03-18T23:08:47.232Z,16.38
2023-03-18T23:11:15.029Z,19.35
2023-03-18T23:13:52.500Z,20.08
2023-03-18T23:16:21.358Z,15.40
2023-03-18T23:18:48.722Z,15.27
2023-03-18T23:21:23.761Z,18.13
2023-03-18T23:23:51.318Z,15.57
2023-03-18T23:26:18.274Z,17.50
2023-03-18T23:28:45.564Z,14.23
2023-03-18T23:31:15.245Z,14.43
2023-03-18T23:33:42.326Z,19.58
2023-03-18T23:36:09.490Z,17.65
2023-03-18T23:38:38.116Z,19.10
2023-03-18T23:41:05.384Z,14.45
2023-03-18T23:43:31.999Z,12.85
2023-03-18T23:45:58.737Z,16.15
2023-03-18T23:48:25.873Z,18.15
2023-03-18T23:50:52.558Z,12.73
2023-03-18T23:53:19.527Z,15.75
2023-03-18T23:55:48.671Z,14.30
2023-03-18T23:58:15.724Z,16.25
